createdAt,value
2019-05-05T00:00:39.199Z,94100.44
2019-05-05T00:03:16.519Z,94099.81
2019-05-05T00:05:44.957Z,94096.86
2019-05-05T00:08:12.632Z,94109.63
2019-05-05T00:10:59.250Z,94115.70
2019-05-05T00:13:29.382Z,94118.33
2019-05-05T00:16:15.176Z,94122.67
2019-05-05T00:18:42.019Z,94123.00
2019-05-05T00:21:08.566Z,94131.09
2019-05-05T00:23:35.321Z,94126.33
2019-05-05T00:26:01.862Z,94133.67
2019-05-05T00:28:28.393Z,94128.42
2019-05-05T00:30:55.464Z,94130.06
2019-05-05T00:33:22.069Z,94129.86
2019-05-05T00:35:48.609Z,94128.70
2019-05-05T00:38:15.151Z,94121.89
2019-05-05T00:40:41.691Z,94125.05
2019-05-05T00:43:08.218Z,94130.80
2019-05-05T00:45:36.063Z,94129.81
2019-05-05T00:48:07.160Z,94142.12
2019-05-05T00:50:34.365Z,94139.73
2019-05-05T00:53:00.938Z,94140.47
2019-05-05T00:55:27.473Z,94133.91
2019-05-05T00:57:54.911Z,94136.95
2019-05-05T01:00:38.653Z,94138.55
2019-05-05T01:03:05.580Z,94141.50
2019-05-05T01:05:37.924Z,94141.17
2019-05-05T01:08:06.368Z,94143.02
2019-05-05T01:10:35.261Z,94148.14
2019-05-05T01:13:02.236Z,94147.33
2019-05-05T01:15:28.975Z,94144.98
2019-05-05T01:17:55.496Z,94150.36
2019-05-05T01:20:22.055Z,94143.20
2019-05-05T01:22:48.576Z,94154.53
2019-05-05T01:25:15.527Z,94158.31
2019-05-05T01:27:42.349Z,94149.95
2019-05-05T01:30:15.166Z,94155.69
2019-05-05T01:32:44.601Z,94156.17
2019-05-05T01:35:11.514Z,94149.82
2019-05-05T01:37:38.288Z,94156.59
2019-05-05T01:40:28.340Z,94158.39
2019-05-05T01:42:56.874Z,94162.45
2019-05-05T01:45:24.205Z,94162.13
2019-05-05T01:47:50.839Z,94161.97
2019-05-05T01:50:21.255Z,94158.59
2019-05-05T01:52:45.814Z,94167.45
2019-05-05T01:55:14.547Z,94166.00
2019-05-05T01:57:41.303Z,94172.28
2019-05-05T02:00:08.470Z,94169.33
2019-05-05T02:02:35.109Z,94170.30
2019-05-05T02:05:04.535Z,94176.73
2019-05-05T02:07:31.114Z,94180.72
2019-05-05T02:09:57.637Z,94182.67
2019-05-05T02:12:24.737Z,94180.54
2019-05-05T02:14:51.990Z,94177.98
2019-05-05T02:17:18.680Z,94184.11
2019-05-05T02:19:45.176Z,94180.05
2019-05-05T02:22:11.916Z,94187.64
2019-05-05T02:24:38.446Z,94186.25
2019-05-05T02:27:05.372Z,94183.23
2019-05-05T02:29:32.059Z,94188.48
2019-05-05T02:32:17.020Z,94195.16
2019-05-05T02:35:02.352Z,94189.41
2019-05-05T02:37:28.994Z,94191.66
2019-05-05T02:39:58.905Z,94197.72
2019-05-05T02:42:25.547Z,94202.43
2019-05-05T02:44:54.685Z,94203.20
2019-05-05T02:47:45.235Z,94209.60
2019-05-05T02:50:11.809Z,94207.95
2019-05-05T02:52:39.662Z,94209.60
2019-05-05T02:55:07.395Z,94210.42
2019-05-05T02:57:34.585Z,94216.25
2019-05-05T03:00:04.519Z,94222.32
2019-05-05T03:02:35.180Z,94222.81
2019-05-05T03:05:04.071Z,94221.20
2019-05-05T03:07:34.441Z,94223.42
2019-05-05T03:10:03.571Z,94220.37
2019-05-05T03:12:34.636Z,94217.96
2019-05-05T03:15:04.213Z,94217.91
2019-05-05T03:17:30.940Z,94219.34
2019-05-05T03:19:57.693Z,94217.20
2019-05-05T03:22:24.833Z,94228.40
2019-05-05T03:24:51.361Z,94226.05
2019-05-05T03:27:17.997Z,94222.45
2019-05-05T03:29:45.533Z,94216.23
2019-05-05T03:32:15.705Z,94233.00
2019-05-05T03:34:40.712Z,94226.05
2019-05-05T03:37:07.569Z,94223.42
2019-05-05T03:39:34.294Z,94218.03
2019-05-05T03:42:10.272Z,94222.02
2019-05-05T03:44:45.433Z,94228.86
2019-05-05T03:47:13.539Z,94228.37
2019-05-05T03:49:40.574Z,94233.22
2019-05-05T03:52:07.710Z,94239.50
2019-05-05T03:54:34.375Z,94234.66
2019-05-05T03:57:07.446Z,94241.42
2019-05-05T03:59:36.162Z,94233.56
2019-05-05T04:02:11.564Z,94239.02
2019-05-05T04:04:40.293Z,94240.33
2019-05-05T04:07:06.841Z,94246.01
2019-05-05T04:09:34.551Z,94246.83
2019-05-05T04:12:01.442Z,94238.25
2019-05-05T04:14:28.801Z,94235.14
2019-05-05T04:16:55.351Z,94237.64
2019-05-05T04:19:34.256Z,94241.22
2019-05-05T04:22:01.075Z,94243.16
2019-05-05T04:24:27.622Z,94244.11
2019-05-05T04:26:54.652Z,94253.66
2019-05-05T04:29:21.540Z,94253.72
2019-05-05T04:31:48.071Z,94254.33
2019-05-05T04:34:14.629Z,94253.56
2019-05-05T04:36:41.154Z,94255.19
2019-05-05T04:39:08.018Z,94252.52
2019-05-05T04:41:34.540Z,94255.69
2019-05-05T04:44:01.579Z,94260.86
2019-05-05T04:46:28.129Z,94266.45
2019-05-05T04:48:56.570Z,94263.42
2019-05-05T04:51:47.059Z,94272.87
2019-05-05T04:54:16.045Z,94271.89
2019-05-05T04:56:44.371Z,94275.56
2019-05-05T04:59:11.013Z,94274.75
2019-05-05T05:01:37.536Z,94272.23
2019-05-05T05:04:18.202Z,94272.50
2019-05-05T05:06:46.685Z,94280.34
2019-05-05T05:09:14.658Z,94276.09
2019-05-05T05:11:41.358Z,94278.55
2019-05-05T05:14:07.892Z,94279.14
2019-05-05T05:16:35.708Z,94283.36
2019-05-05T05:19:04.335Z,94291.13
2019-05-05T05:21:30.899Z,94287.38
2019-05-05T05:23:57.447Z,94292.66
2019-05-05T05:26:24.487Z,94288.67
2019-05-05T05:28:51.043Z,94284.25
2019-05-05T05:31:17.819Z,94296.30
2019-05-05T05:33:44.369Z,94293.70
2019-05-05T05:36:10.886Z,94287.41
2019-05-05T05:38:37.545Z,94289.55
2019-05-05T05:41:13.692Z,94291.56
2019-05-05T05:43:45.119Z,94306.64
2019-05-05T05:46:13.684Z,94305.72
2019-05-05T05:48:45.494Z,94312.61
2019-05-05T05:51:14.644Z,94315.31
2019-05-05T05:53:41.367Z,94318.20
2019-05-05T05:56:07.887Z,94324.20
2019-05-05T05:58:34.418Z,94326.19
2019-05-05T06:01:00.952Z,94328.79
2019-05-05T06:03:27.484Z,94334.01
2019-05-05T06:05:54.176Z,94341.44
2019-05-05T06:08:20.871Z,94348.09
2019-05-05T06:10:47.402Z,94347.16
2019-05-05T06:13:15.233Z,94343.42
2019-05-05T06:15:44.155Z,94341.99
2019-05-05T06:18:10.696Z,94343.82
2019-05-05T06:20:37.253Z,94340.52
2019-05-05T06:23:04.188Z,94348.16
2019-05-05T06:25:30.926Z,94341.88
2019-05-05T06:27:57.443Z,94345.39
2019-05-05T06:30:24.489Z,94347.34
2019-05-05T06:32:51.194Z,94342.83
2019-05-05T06:35:17.739Z,94351.77
2019-05-05T06:37:54.375Z,94349.66
2019-05-05T06:40:26.229Z,94351.77
2019-05-05T06:42:55.654Z,94356.28
2019-05-05T06:45:29.967Z,94355.65
2019-05-05T06:47:56.530Z,94360.08
2019-05-05T06:50:24.266Z,94363.26
2019-05-05T06:52:51.014Z,94374.03
2019-05-05T06:55:17.544Z,94375.13
2019-05-05T06:57:44.487Z,94372.52
2019-05-05T07:00:13.847Z,94367.14
2019-05-05T07:02:40.286Z,94377.97
2019-05-05T07:05:07.040Z,94378.61
2019-05-05T07:07:34.256Z,94388.06
2019-05-05T07:10:03.609Z,94380.73
2019-05-05T07:12:29.869Z,94380.75
2019-05-05T07:14:56.399Z,94378.98
2019-05-05T07:17:24.483Z,94381.20
2019-05-05T07:19:51.279Z,94386.11
2019-05-05T07:22:18.571Z,94387.81
2019-05-05T07:24:45.089Z,94387.55
2019-05-05T07:27:13.830Z,94398.98
2019-05-05T07:29:40.317Z,94399.57
2019-05-05T07:32:06.871Z,94393.27
2019-05-05T07:34:47.256Z,94403.91
2019-05-05T07:37:14.377Z,94408.80
2019-05-05T07:39:40.953Z,94409.57
2019-05-05T07:42:07.465Z,94415.34
2019-05-05T07:44:34.014Z,94413.53
2019-05-05T07:47:00.541Z,94423.15
2019-05-05T07:49:27.081Z,94427.28
2019-05-05T07:51:54.736Z,94428.32
2019-05-05T07:54:23.523Z,94426.12
2019-05-05T07:56:50.008Z,94426.06
2019-05-05T07:59:16.530Z,94430.05
2019-05-05T08:01:46.311Z,94429.34
2019-05-05T08:04:13.688Z,94433.19
2019-05-05T08:06:40.486Z,94435.66
2019-05-05T08:09:07.013Z,94435.27
2019-05-05T08:11:34.237Z,94440.91
2019-05-05T08:14:01.086Z,94446.72
2019-05-05T08:16:33.687Z,94444.92
2019-05-05T08:19:03.907Z,94447.09
2019-05-05T08:21:30.834Z,94455.88
2019-05-05T08:23:57.389Z,94456.48
2019-05-05T08:26:33.684Z,94461.41
2019-05-05T08:29:04.514Z,94465.53
2019-05-05T08:31:49.105Z,94464.62
2019-05-05T08:34:16.043Z,94465.44
2019-05-05T08:36:44.489Z,94461.93
2019-05-05T08:39:11.087Z,94463.91
2019-05-05T08:41:37.617Z,94454.84
2019-05-05T08:44:04.193Z,94458.27
2019-05-05T08:46:30.728Z,94455.55
2019-05-05T08:48:57.492Z,94456.42
2019-05-05T08:51:24.818Z,94458.87
2019-05-05T08:53:51.638Z,94457.76
2019-05-05T08:56:18.174Z,94455.20
2019-05-05T08:58:44.807Z,94451.97
2019-05-05T09:01:11.341Z,94456.12
2019-05-05T09:03:37.881Z,94457.88
2019-05-05T09:06:04.758Z,94466.11
2019-05-05T09:08:31.439Z,94465.66
2019-05-05T09:10:58.783Z,94473.45
2019-05-05T09:13:25.323Z,94462.68
2019-05-05T09:15:54.382Z,94456.79
2019-05-05T09:18:21.127Z,94454.53
2019-05-05T09:20:47.669Z,94460.31
2019-05-05T09:23:14.855Z,94457.44
2019-05-05T09:25:58.855Z,94456.50
2019-05-05T09:28:34.129Z,94444.55
2019-05-05T09:31:00.859Z,94447.62
2019-05-05T09:33:27.396Z,94446.14
2019-05-05T09:35:54.315Z,94445.57
2019-05-05T09:38:21.215Z,94447.30
2019-05-05T09:40:47.741Z,94448.80
2019-05-05T09:43:14.855Z,94448.97
2019-05-05T09:45:43.962Z,94451.77
2019-05-05T09:48:10.115Z,94458.11
2019-05-05T09:50:36.638Z,94458.06
2019-05-05T09:53:04.177Z,94464.13
2019-05-05T09:55:31.003Z,94456.58
2019-05-05T09:57:57.536Z,94454.50
2019-05-05T10:00:24.425Z,94458.39
2019-05-05T10:02:51.005Z,94459.63
2019-05-05T10:05:17.621Z,94468.11
2019-05-05T10:07:44.259Z,94458.90
2019-05-05T10:10:11.194Z,94469.14
2019-05-05T10:12:37.744Z,94461.17
2019-05-05T10:15:07.430Z,94469.62
2019-05-05T10:17:34.240Z,94468.52
2019-05-05T10:20:00.799Z,94453.16
2019-05-05T10:22:27.332Z,94452.26
2019-05-05T10:24:57.577Z,94455.57
2019-05-05T10:27:24.388Z,94461.58
2019-05-05T10:29:51.225Z,94462.06
2019-05-05T10:32:17.765Z,94465.01
2019-05-05T10:34:46.713Z,94469.45
2019-05-05T10:37:14.230Z,94465.82
2019-05-05T10:39:48.750Z,94465.05
2019-05-05T10:42:15.429Z,94466.28
2019-05-05T10:44:42.000Z,94470.94
2019-05-05T10:47:08.532Z,94463.69
2019-05-05T10:49:35.095Z,94471.70
2019-05-05T10:52:03.749Z,94454.09
2019-05-05T10:54:43.855Z,94462.19
2019-05-05T10:56:58.999Z,94469.70
2019-05-05T10:59:25.543Z,94468.07
2019-05-05T11:01:53.778Z,94470.83
2019-05-05T11:04:20.411Z,94468.94
2019-05-05T11:06:46.933Z,94473.98
2019-05-05T11:09:14.039Z,94482.78
2019-05-05T11:11:40.701Z,94473.54
2019-05-05T11:14:07.390Z,94480.26
2019-05-05T11:16:34.210Z,94480.45
2019-05-05T11:19:00.993Z,94484.64
2019-05-05T11:21:27.550Z,94484.83
2019-05-05T11:23:54.780Z,94475.42
2019-05-05T11:26:21.308Z,94477.91
2019-05-05T11:28:47.840Z,94472.47
2019-05-05T11:31:16.064Z,94469.18
2019-05-05T11:33:45.708Z,94466.98
2019-05-05T11:36:34.462Z,94476.72
2019-05-05T11:39:00.840Z,94477.54
2019-05-05T11:41:27.568Z,94477.82
2019-05-05T11:43:54.350Z,94488.56
2019-05-05T11:46:20.874Z,94489.58
2019-05-05T11:48:47.435Z,94480.77
2019-05-05T11:51:15.081Z,94473.59
2019-05-05T11:53:41.910Z,94475.55
2019-05-05T11:56:08.437Z,94479.23
2019-05-05T11:58:35.274Z,94480.73
2019-05-05T12:01:03.780Z,94472.91
2019-05-05T12:03:30.276Z,94476.77
2019-05-05T12:05:58.728Z,94481.83
2019-05-05T12:08:25.270Z,94482.91
2019-05-05T12:10:57.210Z,94486.02
2019-05-05T12:13:23.742Z,94480.98
2019-05-05T12:15:53.797Z,94477.11
2019-05-05T12:18:20.402Z,94481.73
2019-05-05T12:21:00.803Z,94485.86
2019-05-05T12:23:27.323Z,94488.48
2019-05-05T12:25:59.912Z,94484.19
2019-05-05T12:28:28.320Z,94486.02
2019-05-05T12:31:03.661Z,94491.32
2019-05-05T12:33:30.378Z,94492.00
2019-05-05T12:35:56.938Z,94492.66
2019-05-05T12:38:24.134Z,94488.02
2019-05-05T12:40:50.754Z,94503.04
2019-05-05T12:43:17.474Z,94498.22
2019-05-05T12:46:04.458Z,94504.80
2019-05-05T12:48:43.708Z,94506.45
2019-05-05T12:51:10.363Z,94503.63
2019-05-05T12:53:36.888Z,94506.77
2019-05-05T12:56:04.114Z,94515.70
2019-05-05T12:58:30.797Z,94509.62
2019-05-05T13:00:59.350Z,94512.59
2019-05-05T13:03:26.438Z,94512.06
2019-05-05T13:05:54.990Z,94507.45
2019-05-05T13:08:23.513Z,94502.39
2019-05-05T13:10:53.531Z,94510.16
2019-05-05T13:13:21.541Z,94500.27
2019-05-05T13:15:50.657Z,94498.79
2019-05-05T13:18:17.179Z,94494.08
2019-05-05T13:29:54.512Z,94494.96
2019-05-05T13:32:21.293Z,94504.53
2019-05-05T13:34:47.906Z,94502.52
2019-05-05T13:37:14.457Z,94505.33
2019-05-05T13:39:40.983Z,94501.89
2019-05-05T13:42:07.544Z,94501.59
2019-05-05T13:44:52.559Z,94492.00
2019-05-05T13:47:19.442Z,94503.25
2019-05-05T13:49:45.972Z,94501.91
2019-05-05T13:52:13.923Z,94502.44
2019-05-05T13:54:40.677Z,94498.37
2019-05-05T13:57:07.264Z,94495.72
2019-05-05T13:59:34.183Z,94501.53
2019-05-05T14:02:00.706Z,94497.52
2019-05-05T14:07:15.804Z,94489.30
2019-05-05T14:09:44.183Z,94492.21
2019-05-05T14:12:10.805Z,94490.06
2019-05-05T14:14:37.326Z,94486.93
2019-05-05T14:17:04.290Z,94482.63
2019-05-05T14:19:30.850Z,94476.80
2019-05-05T14:21:57.484Z,94477.92
2019-05-05T14:24:28.567Z,94478.59
2019-05-05T14:26:55.107Z,94481.39
2019-05-05T14:29:35.479Z,94485.02
2019-05-05T14:32:02.415Z,94481.05
2019-05-05T14:34:30.849Z,94486.02
2019-05-05T14:37:11.057Z,94484.85
2019-05-05T14:39:36.812Z,94487.33
2019-05-05T14:42:04.507Z,94488.51
2019-05-05T14:44:31.216Z,94484.01
2019-05-05T14:46:57.739Z,94490.78
2019-05-05T14:49:24.691Z,94485.48
2019-05-05T14:51:51.349Z,94486.66
2019-05-05T14:54:17.870Z,94485.38
2019-05-05T14:56:44.403Z,94485.03
2019-05-05T14:59:10.939Z,94483.69
2019-05-05T15:01:37.460Z,94477.81
2019-05-05T15:04:04.408Z,94482.39
2019-05-05T15:06:34.419Z,94483.33
2019-05-05T15:09:18.354Z,94479.26
2019-05-05T15:12:03.807Z,94473.88
2019-05-05T15:14:30.422Z,94478.38
2019-05-05T15:16:56.957Z,94477.41
2019-05-05T15:19:23.873Z,94479.07
2019-05-05T15:21:50.512Z,94485.36
2019-05-05T15:24:17.053Z,94482.39
2019-05-05T15:26:51.871Z,94488.67
2019-05-05T15:29:12.010Z,94487.34
2019-05-05T15:31:38.546Z,94480.08
2019-05-05T15:34:05.060Z,94488.52
2019-05-05T15:36:33.341Z,94483.72
2019-05-05T15:39:00.058Z,94478.10
2019-05-05T15:41:26.598Z,94488.02
2019-05-05T15:43:54.404Z,94486.02
2019-05-05T15:46:21.153Z,94495.12
2019-05-05T15:48:48.034Z,94493.64
2019-05-05T15:51:14.602Z,94494.13
2019-05-05T15:53:41.091Z,94491.66
2019-05-05T15:56:07.611Z,94493.61
2019-05-05T15:58:34.398Z,94493.97
2019-05-05T16:01:01.092Z,94491.47
2019-05-05T16:03:29.828Z,94490.65
2019-05-05T16:05:56.102Z,94489.34
2019-05-05T16:08:22.621Z,94485.20
2019-05-05T16:10:49.176Z,94489.19
2019-05-05T16:13:15.707Z,94488.02
2019-05-05T16:15:42.226Z,94487.03
2019-05-05T16:18:19.691Z,94493.98
2019-05-05T16:21:01.170Z,94495.45
2019-05-05T16:23:47.871Z,94493.29
2019-05-05T16:26:14.412Z,94499.41
2019-05-05T16:28:41.017Z,94499.91
2019-05-05T16:31:07.532Z,94498.73
2019-05-05T16:33:34.061Z,94498.56
2019-05-05T16:36:00.575Z,94508.01
2019-05-05T16:38:27.164Z,94507.45
2019-05-05T16:40:53.893Z,94511.02
2019-05-05T16:43:20.430Z,94512.38
2019-05-05T16:45:47.085Z,94508.59
2019-05-05T16:48:13.703Z,94511.56
2019-05-05T16:50:43.910Z,94512.70
2019-05-05T16:53:14.020Z,94505.30
2019-05-05T16:55:40.368Z,94508.95
2019-05-05T16:58:07.006Z,94501.39
2019-05-05T17:00:34.583Z,94508.36
2019-05-05T17:03:01.262Z,94509.50
2019-05-05T17:05:27.792Z,94504.03
2019-05-05T17:07:55.841Z,94506.50
2019-05-05T17:10:24.481Z,94515.92
2019-05-05T17:12:51.239Z,94512.30
2019-05-05T17:15:35.255Z,94507.16
2019-05-05T17:18:09.015Z,94518.89
2019-05-05T17:20:51.114Z,94515.06
2019-05-05T17:23:18.047Z,94517.67
2019-05-05T17:25:44.688Z,94526.30
2019-05-05T17:28:11.234Z,94526.50
2019-05-05T17:30:37.891Z,94529.97
2019-05-05T17:33:04.469Z,94525.69
2019-05-05T17:35:33.643Z,94524.50
2019-05-05T17:38:07.130Z,94527.94
2019-05-05T17:40:36.545Z,94526.52
2019-05-05T17:43:04.976Z,94526.01
2019-05-05T17:45:50.404Z,94535.77
2019-05-05T17:48:18.730Z,94531.21
2019-05-05T17:50:45.529Z,94532.27
2019-05-05T17:53:14.901Z,94533.77
2019-05-05T17:55:41.891Z,94531.80
2019-05-05T17:58:08.413Z,94528.19
2019-05-05T18:00:36.853Z,94527.65
2019-05-05T18:03:04.342Z,94525.97
2019-05-05T18:05:51.121Z,94524.64
2019-05-05T18:08:34.735Z,94525.00
2019-05-05T18:11:03.896Z,94529.58
2019-05-05T18:13:35.232Z,94532.31
2019-05-05T18:16:01.985Z,94540.05
2019-05-05T18:18:28.517Z,94538.72
2019-05-05T18:20:55.189Z,94550.95
2019-05-05T18:23:23.437Z,94550.63
2019-05-05T18:25:50.153Z,94550.43
2019-05-05T18:28:20.003Z,94556.03
2019-05-05T18:30:45.191Z,94550.89
2019-05-05T18:33:13.597Z,94551.83
2019-05-05T18:35:40.146Z,94559.70
2019-05-05T18:38:06.682Z,94553.05
2019-05-05T18:40:34.095Z,94551.34
2019-05-05T18:43:04.010Z,94553.92
2019-05-05T18:45:30.754Z,94559.98
2019-05-05T18:47:57.280Z,94562.73
2019-05-05T18:50:24.425Z,94566.61
2019-05-05T18:52:51.118Z,94568.92
2019-05-05T18:55:17.663Z,94569.55
2019-05-05T18:57:44.219Z,94560.29
2019-05-05T19:00:13.951Z,94569.84
2019-05-05T19:02:53.445Z,94567.33
2019-05-05T19:05:39.455Z,94575.75
2019-05-05T19:08:16.716Z,94577.51
2019-05-05T19:10:43.418Z,94566.53
2019-05-05T19:13:10.452Z,94569.06
2019-05-05T19:15:37.440Z,94571.88
2019-05-05T19:18:06.321Z,94582.45
2019-05-05T19:20:37.079Z,94586.83
2019-05-05T19:23:05.918Z,94587.66
2019-05-05T19:25:32.078Z,94594.83
2019-05-05T19:27:58.652Z,94600.39
2019-05-05T19:30:25.758Z,94601.52
2019-05-05T19:32:54.160Z,94597.86
2019-05-05T19:35:20.780Z,94601.00
2019-05-05T19:37:47.355Z,94604.45
2019-05-05T19:40:14.223Z,94600.17
2019-05-05T19:42:40.837Z,94595.75
2019-05-05T19:45:07.591Z,94603.83
2019-05-05T19:47:34.143Z,94603.73
2019-05-05T19:50:02.651Z,94605.34
2019-05-05T19:52:29.226Z,94605.81
2019-05-05T19:54:55.802Z,94603.62
2019-05-05T19:57:22.331Z,94601.84
2019-05-05T19:59:48.870Z,94600.37
2019-05-05T20:02:15.404Z,94598.96
2019-05-05T20:04:44.352Z,94598.25
2019-05-05T20:07:10.510Z,94599.89
2019-05-05T20:09:37.031Z,94600.75
2019-05-05T20:12:04.160Z,94605.86
2019-05-05T20:14:30.700Z,94601.41
2019-05-05T20:17:03.996Z,94608.88
2019-05-05T20:19:31.286Z,94605.02
2019-05-05T20:21:57.836Z,94612.75
2019-05-05T20:24:24.376Z,94607.41
2019-05-05T20:26:50.910Z,94599.78
2019-05-05T20:29:17.895Z,94610.09
2019-05-05T20:31:44.419Z,94603.41
2019-05-05T20:34:24.208Z,94604.86
2019-05-05T20:37:07.280Z,94604.56
2019-05-05T20:39:34.207Z,94600.86
2019-05-05T20:42:00.775Z,94607.25
2019-05-05T20:44:27.296Z,94604.56
2019-05-05T20:46:53.826Z,94606.13
2019-05-05T20:49:20.347Z,94602.55
2019-05-05T20:51:46.873Z,94602.55
2019-05-05T20:54:14.267Z,94604.77
2019-05-05T20:56:40.862Z,94603.16
2019-05-05T20:59:07.386Z,94599.01
2019-05-05T21:01:34.202Z,94596.33
2019-05-05T21:04:00.924Z,94591.42
2019-05-05T21:06:27.444Z,94591.47
2019-05-05T21:08:53.983Z,94590.80
2019-05-05T21:11:20.511Z,94590.89
2019-05-05T21:13:47.072Z,94588.34
2019-05-05T21:16:14.282Z,94592.50
2019-05-05T21:18:41.056Z,94592.42
2019-05-05T21:21:09.494Z,94595.05
2019-05-05T21:23:37.928Z,94589.28
2019-05-05T21:26:06.347Z,94594.27
2019-05-05T21:28:33.637Z,94590.53
2019-05-05T21:31:00.251Z,94588.86
2019-05-05T21:33:26.771Z,94591.27
2019-05-05T21:35:55.111Z,94588.50
2019-05-05T21:38:21.712Z,94578.42
2019-05-05T21:40:48.230Z,94586.32
2019-05-05T21:43:15.332Z,94584.84
2019-05-05T21:45:44.314Z,94586.88
2019-05-05T21:48:10.402Z,94587.28
2019-05-05T21:50:38.861Z,94586.45
2019-05-05T21:53:08.028Z,94584.83
2019-05-05T21:55:43.937Z,94583.59
2019-05-05T21:58:10.628Z,94583.59
2019-05-05T22:00:49.301Z,94586.05
2019-05-05T22:03:18.171Z,94583.22
2019-05-05T22:05:44.691Z,94578.98
2019-05-05T22:08:11.220Z,94581.17
2019-05-05T22:10:37.736Z,94582.36
2019-05-05T22:13:04.847Z,94581.15
2019-05-05T22:15:33.641Z,94580.59
2019-05-05T22:18:00.053Z,94581.45
2019-05-05T22:20:28.516Z,94579.09
2019-05-05T22:22:55.103Z,94580.90
2019-05-05T22:25:21.633Z,94580.08
2019-05-05T22:27:48.169Z,94585.12
2019-05-05T22:30:14.907Z,94583.21
2019-05-05T22:32:41.437Z,94582.45
2019-05-05T22:35:09.861Z,94584.44
2019-05-05T22:37:36.388Z,94583.28
2019-05-05T22:40:03.652Z,94582.30
2019-05-05T22:42:30.222Z,94584.59
2019-05-05T22:44:56.748Z,94578.84
2019-05-05T22:47:23.679Z,94579.82
2019-05-05T22:49:50.301Z,94575.94
2019-05-05T22:52:16.873Z,94578.08
2019-05-05T22:54:44.414Z,94580.50
2019-05-05T22:57:11.052Z,94587.72
2019-05-05T22:59:37.584Z,94586.80
2019-05-05T23:02:04.144Z,94582.58
2019-05-05T23:04:34.781Z,94586.45
2019-05-05T23:07:03.824Z,94583.55
2019-05-05T23:09:30.496Z,94582.84
2019-05-05T23:11:57.021Z,94585.84
2019-05-05T23:14:29.843Z,94579.27
2019-05-05T23:17:14.569Z,94574.59
2019-05-05T23:19:47.179Z,94582.16
2019-05-05T23:22:34.697Z,94581.05
2019-05-05T23:25:12.034Z,94576.33
2019-05-05T23:27:48.415Z,94576.83
2019-05-05T23:30:17.800Z,94585.27
2019-05-05T23:32:45.429Z,94577.42
2019-05-05T23:35:14.136Z,94580.55
2019-05-05T23:37:40.431Z,94580.78
2019-05-05T23:40:07.373Z,94582.37
2019-05-05T23:42:33.894Z,94581.59
2019-05-05T23:45:00.425Z,94582.70
2019-05-05T23:47:26.946Z,94584.02
2019-05-05T23:49:53.818Z,94588.25
2019-05-05T23:52:20.542Z,94583.97
2019-05-05T23:54:47.076Z,94577.67
2019-05-05T23:57:13.837Z,94575.09
2019-05-05T23:59:40.519Z,94582.70
